createdAt,value
2019-03-30T00:02:11.667Z,6.18
2019-03-30T00:04:42.118Z,6.56
2019-03-30T00:07:12.673Z,7.04
2019-03-30T00:09:43.196Z,7.35
2019-03-30T00:12:13.754Z,7.65
2019-03-30T00:14:44.196Z,7.78
2019-03-30T00:17:14.655Z,7.74
2019-03-30T00:19:45.103Z,7.49
2019-03-30T00:22:15.610Z,7.37
2019-03-30T00:24:46.163Z,7.59
2019-03-30T00:27:16.664Z,7.77
2019-03-30T00:29:47.241Z,8.11
2019-03-30T00:32:17.707Z,8.03
2019-03-30T00:34:48.130Z,7.62
2019-03-30T00:37:18.546Z,7.54
2019-03-30T00:39:48.991Z,7.53
2019-03-30T00:42:19.474Z,7.23
2019-03-30T00:44:49.832Z,6.95
2019-03-30T00:47:20.272Z,7.15
2019-03-30T00:49:50.693Z,7.33
2019-03-30T00:52:21.145Z,7.53
2019-03-30T00:54:51.671Z,7.81
2019-03-30T00:57:22.224Z,7.84
2019-03-30T00:59:52.904Z,8.09
2019-03-30T01:02:23.347Z,7.65
2019-03-30T01:04:53.879Z,7.15
2019-03-30T01:07:24.420Z,6.85
2019-03-30T01:09:54.892Z,6.85
2019-03-30T01:12:25.346Z,6.52
2019-03-30T01:14:55.859Z,6.34
2019-03-30T01:17:26.219Z,6.34
2019-03-30T01:20:02.675Z,6.29
2019-03-30T01:22:29.028Z,6.35
2019-03-30T01:24:59.471Z,6.14
2019-03-30T01:27:31.150Z,6.08
2019-03-30T01:30:01.623Z,6.24
2019-03-30T01:32:34.910Z,6.14
2019-03-30T01:35:04.294Z,6.58
2019-03-30T01:37:34.837Z,6.66
2019-03-30T01:40:06.124Z,6.95
2019-03-30T01:42:36.714Z,6.94
2019-03-30T01:45:08.625Z,6.85
2019-03-30T01:47:39.150Z,6.65
2019-03-30T01:50:17.059Z,6.36
2019-03-30T01:52:42.434Z,6.25
2019-03-30T01:55:12.975Z,6.17
2019-03-30T01:57:43.418Z,6.13
2019-03-30T02:00:14.435Z,5.99
2019-03-30T02:02:45.165Z,5.90
2019-03-30T02:05:15.708Z,5.94
2019-03-30T02:07:46.261Z,5.79
2019-03-30T02:10:24.491Z,5.69
2019-03-30T02:12:54.952Z,5.70
2019-03-30T02:15:25.410Z,5.71
2019-03-30T02:17:55.855Z,5.55
2019-03-30T02:20:37.925Z,5.60
2019-03-30T02:23:08.569Z,5.60
2019-03-30T02:25:39.202Z,5.65
2019-03-30T02:28:10.105Z,5.65
2019-03-30T02:30:40.858Z,5.77
2019-03-30T02:33:11.422Z,6.05
2019-03-30T02:35:43.310Z,6.06
2019-03-30T02:38:13.831Z,6.19
2019-03-30T02:40:44.306Z,6.04
2019-03-30T02:43:14.929Z,6.06
2019-03-30T02:45:45.393Z,5.91
2019-03-30T02:48:15.827Z,5.79
2019-03-30T02:50:49.861Z,5.78
2019-03-30T02:53:18.569Z,5.72
2019-03-30T02:55:49.995Z,5.70
2019-03-30T02:58:20.534Z,5.67
2019-03-30T03:00:50.904Z,4.93
2019-03-30T03:03:21.268Z,5.40
2019-03-30T03:05:51.776Z,5.42
2019-03-30T03:08:22.351Z,5.82
2019-03-30T03:10:52.799Z,5.88
2019-03-30T03:13:23.236Z,5.90
2019-03-30T03:15:53.765Z,5.99
2019-03-30T03:18:24.232Z,6.10
2019-03-30T03:21:07.483Z,6.31
2019-03-30T03:23:26.767Z,6.29
2019-03-30T03:25:57.203Z,6.12
2019-03-30T03:28:27.634Z,6.43
2019-03-30T03:30:58.165Z,6.44
2019-03-30T03:33:28.787Z,6.54
2019-03-30T03:35:59.248Z,6.60
2019-03-30T03:38:29.768Z,6.64
2019-03-30T03:41:00.216Z,6.50
2019-03-30T03:43:30.594Z,6.29
2019-03-30T03:46:01.133Z,6.03
2019-03-30T03:48:31.554Z,6.29
2019-03-30T03:51:04.034Z,6.50
2019-03-30T03:53:36.450Z,6.59
2019-03-30T03:56:08.642Z,6.31
2019-03-30T03:58:40.859Z,6.28
2019-03-30T04:01:12.696Z,6.46
2019-03-30T04:03:43.613Z,6.49
2019-03-30T04:06:14.787Z,6.43
2019-03-30T04:08:48.000Z,6.44
2019-03-30T04:11:20.230Z,6.30
2019-03-30T04:13:53.187Z,6.40
2019-03-30T04:16:23.866Z,6.29
2019-03-30T04:18:54.401Z,6.30
2019-03-30T04:21:42.366Z,6.37
2019-03-30T04:23:57.029Z,6.23
2019-03-30T04:26:27.438Z,6.21
2019-03-30T04:28:57.925Z,6.25
2019-03-30T04:31:28.357Z,6.10
2019-03-30T04:33:58.801Z,6.34
2019-03-30T04:36:29.425Z,6.49
2019-03-30T04:38:59.817Z,6.58
2019-03-30T04:41:30.245Z,6.29
2019-03-30T04:44:00.704Z,6.13
2019-03-30T04:46:31.347Z,5.75
2019-03-30T04:49:01.714Z,5.64
2019-03-30T04:51:32.251Z,5.79
2019-03-30T04:54:02.720Z,5.75
2019-03-30T04:56:34.206Z,6.07
2019-03-30T04:59:04.662Z,6.21
2019-03-30T05:01:35.068Z,6.01
2019-03-30T05:04:06.580Z,5.86
2019-03-30T05:06:37.849Z,5.74
2019-03-30T05:09:08.740Z,5.69
2019-03-30T05:11:39.180Z,5.95
2019-03-30T05:14:09.555Z,6.18
2019-03-30T05:16:39.985Z,6.20
2019-03-30T05:19:10.358Z,6.38
2019-03-30T05:21:40.910Z,6.12
2019-03-30T05:24:11.351Z,6.02
2019-03-30T05:26:41.805Z,5.65
2019-03-30T05:29:12.341Z,5.51
2019-03-30T05:31:42.699Z,5.44
2019-03-30T05:34:13.171Z,5.55
2019-03-30T05:36:43.544Z,5.86
2019-03-30T05:39:13.919Z,6.19
2019-03-30T05:41:44.449Z,6.31
2019-03-30T05:44:14.895Z,6.37
2019-03-30T05:46:45.328Z,6.29
2019-03-30T05:49:15.834Z,6.18
2019-03-30T05:51:46.207Z,6.28
2019-03-30T05:54:16.692Z,6.12
2019-03-30T05:56:47.153Z,6.33
2019-03-30T05:59:17.600Z,6.58
2019-03-30T06:01:49.172Z,6.76
2019-03-30T06:04:19.689Z,6.87
2019-03-30T06:06:50.301Z,7.00
2019-03-30T06:09:20.779Z,7.08
2019-03-30T06:11:51.153Z,7.24
2019-03-30T06:14:21.608Z,7.44
2019-03-30T06:16:53.233Z,7.53
2019-03-30T06:19:23.771Z,7.76
2019-03-30T06:21:54.309Z,7.83
2019-03-30T06:24:24.751Z,8.03
2019-03-30T06:26:55.181Z,8.12
2019-03-30T06:29:25.710Z,8.37
2019-03-30T06:31:56.135Z,8.52
2019-03-30T06:34:26.605Z,8.56
2019-03-30T06:36:57.133Z,8.86
2019-03-30T06:39:27.664Z,9.09
2019-03-30T06:41:58.305Z,9.32
2019-03-30T06:44:28.668Z,9.36
2019-03-30T06:46:59.169Z,9.40
2019-03-30T06:49:29.726Z,9.58
2019-03-30T06:52:00.252Z,9.83
2019-03-30T06:54:30.700Z,9.88
2019-03-30T06:57:01.304Z,10.01
2019-03-30T06:59:31.743Z,10.10
2019-03-30T07:02:02.244Z,10.33
2019-03-30T07:04:32.966Z,10.54
2019-03-30T07:07:04.101Z,10.54
2019-03-30T07:09:36.273Z,10.71
2019-03-30T07:12:07.954Z,10.93
2019-03-30T07:14:40.644Z,10.89
2019-03-30T07:17:12.761Z,11.07
2019-03-30T07:19:45.269Z,11.08
2019-03-30T07:22:15.788Z,11.19
2019-03-30T07:24:46.332Z,11.24
2019-03-30T07:27:16.850Z,11.36
2019-03-30T07:29:47.413Z,11.49
2019-03-30T07:32:17.985Z,11.32
2019-03-30T07:34:48.453Z,11.47
2019-03-30T07:37:18.953Z,11.68
2019-03-30T07:39:49.410Z,11.74
2019-03-30T07:42:19.874Z,11.61
2019-03-30T07:44:50.421Z,11.65
2019-03-30T07:47:20.945Z,11.95
2019-03-30T07:49:51.423Z,11.85
2019-03-30T07:52:22.933Z,11.84
2019-03-30T07:54:53.319Z,12.01
2019-03-30T07:57:23.892Z,12.21
2019-03-30T07:59:54.340Z,12.58
2019-03-30T08:02:24.710Z,12.59
2019-03-30T08:04:55.156Z,12.62
2019-03-30T08:07:25.614Z,12.57
2019-03-30T08:09:56.162Z,12.12
2019-03-30T08:12:26.613Z,12.27
2019-03-30T08:14:57.071Z,12.70
2019-03-30T08:17:27.515Z,12.87
2019-03-30T08:19:59.082Z,13.15
2019-03-30T08:22:29.616Z,13.31
2019-03-30T08:25:00.361Z,13.24
2019-03-30T08:27:30.892Z,13.07
2019-03-30T08:30:01.341Z,12.77
2019-03-30T08:32:31.780Z,12.98
2019-03-30T08:35:02.343Z,13.48
2019-03-30T08:37:32.781Z,13.95
2019-03-30T08:40:04.763Z,13.74
2019-03-30T08:42:35.252Z,13.59
2019-03-30T08:45:07.555Z,13.68
2019-03-30T08:47:38.080Z,14.72
2019-03-30T08:50:09.447Z,14.76
2019-03-30T08:52:39.992Z,14.76
2019-03-30T08:55:10.891Z,13.91
2019-03-30T08:57:41.424Z,14.03
2019-03-30T09:00:12.359Z,14.29
2019-03-30T09:02:42.948Z,13.85
2019-03-30T09:05:13.592Z,14.29
2019-03-30T09:07:45.216Z,14.38
2019-03-30T09:10:16.273Z,14.38
2019-03-30T09:12:46.829Z,15.04
2019-03-30T09:15:17.288Z,15.08
2019-03-30T09:17:47.754Z,15.05
2019-03-30T09:20:18.386Z,14.83
2019-03-30T09:22:48.984Z,15.14
2019-03-30T09:25:19.523Z,14.88
2019-03-30T09:27:50.010Z,14.84
2019-03-30T09:30:20.632Z,14.74
2019-03-30T09:32:51.137Z,14.81
2019-03-30T09:35:21.823Z,15.12
2019-03-30T09:37:52.270Z,15.49
2019-03-30T09:40:22.840Z,15.20
2019-03-30T09:42:53.390Z,15.25
2019-03-30T09:45:23.772Z,15.38
2019-03-30T09:47:54.317Z,15.61
2019-03-30T09:50:24.936Z,15.51
2019-03-30T09:52:55.420Z,15.54
2019-03-30T09:55:27.339Z,15.59
2019-03-30T09:57:57.960Z,15.49
2019-03-30T10:00:28.414Z,15.52
2019-03-30T10:02:59.034Z,15.54
2019-03-30T10:05:29.565Z,15.36
2019-03-30T10:08:00.117Z,16.02
2019-03-30T10:10:30.787Z,16.49
2019-03-30T10:13:01.379Z,15.90
2019-03-30T10:15:31.861Z,16.07
2019-03-30T10:18:02.437Z,16.01
2019-03-30T10:20:33.007Z,16.23
2019-03-30T10:23:04.476Z,16.53
2019-03-30T10:25:35.035Z,16.36
2019-03-30T10:28:05.672Z,16.48
2019-03-30T10:30:36.142Z,16.99
2019-03-30T10:33:06.587Z,17.15
2019-03-30T10:35:37.080Z,17.41
2019-03-30T10:38:07.557Z,17.52
2019-03-30T10:40:38.002Z,17.70
2019-03-30T10:43:08.598Z,18.01
2019-03-30T10:45:39.136Z,17.50
2019-03-30T10:48:09.669Z,17.59
2019-03-30T10:50:40.209Z,18.19
2019-03-30T10:53:10.640Z,17.92
2019-03-30T10:55:41.204Z,18.10
2019-03-30T10:58:11.835Z,17.54
2019-03-30T11:00:43.482Z,17.76
2019-03-30T11:03:14.111Z,17.30
2019-03-30T11:05:44.675Z,16.89
2019-03-30T11:08:15.115Z,17.41
2019-03-30T11:10:46.668Z,16.93
2019-03-30T11:13:17.179Z,17.40
2019-03-30T11:15:47.644Z,17.30
2019-03-30T11:18:19.458Z,18.17
2019-03-30T11:20:50.117Z,18.39
2019-03-30T11:23:20.724Z,18.52
2019-03-30T11:25:51.346Z,18.55
2019-03-30T11:28:21.823Z,18.59
2019-03-30T11:30:52.394Z,18.52
2019-03-30T11:33:22.833Z,18.85
2019-03-30T11:35:53.220Z,19.39
2019-03-30T11:38:23.743Z,19.30
2019-03-30T11:40:54.345Z,19.36
2019-03-30T11:43:24.742Z,18.89
2019-03-30T11:45:55.204Z,19.05
2019-03-30T11:48:26.833Z,18.88
2019-03-30T11:50:57.310Z,18.31
2019-03-30T11:53:27.842Z,18.55
2019-03-30T11:55:58.318Z,19.31
2019-03-30T11:58:28.836Z,19.40
2019-03-30T12:00:59.285Z,19.81
2019-03-30T12:03:29.749Z,19.78
2019-03-30T12:06:00.192Z,19.82
2019-03-30T12:08:30.650Z,19.15
2019-03-30T12:11:01.267Z,18.55
2019-03-30T12:13:31.799Z,18.49
2019-03-30T12:16:02.432Z,18.33
2019-03-30T12:18:33.230Z,18.42
2019-03-30T12:21:03.771Z,19.04
2019-03-30T12:23:34.308Z,19.47
2019-03-30T12:26:04.834Z,19.61
2019-03-30T12:28:35.360Z,19.75
2019-03-30T12:31:06.069Z,19.73
2019-03-30T12:33:36.657Z,19.89
2019-03-30T12:36:07.166Z,20.55
2019-03-30T12:38:37.718Z,20.71
2019-03-30T12:41:08.549Z,20.44
2019-03-30T12:43:39.290Z,20.07
2019-03-30T12:46:09.825Z,20.01
2019-03-30T12:48:41.308Z,20.52
2019-03-30T12:51:12.016Z,20.92
2019-03-30T12:53:50.207Z,21.14
2019-03-30T12:56:15.778Z,21.55
2019-03-30T12:58:46.149Z,21.23
2019-03-30T13:01:16.587Z,21.24
2019-03-30T13:03:47.036Z,20.89
2019-03-30T13:06:17.574Z,20.00
2019-03-30T13:08:48.033Z,20.20
2019-03-30T13:11:18.753Z,20.10
2019-03-30T13:13:49.227Z,20.92
2019-03-30T13:16:19.807Z,20.91
2019-03-30T13:18:50.657Z,21.06
2019-03-30T13:21:21.122Z,21.30
2019-03-30T13:23:51.754Z,21.19
2019-03-30T13:26:22.140Z,21.12
2019-03-30T13:28:52.668Z,21.46
2019-03-30T13:31:23.161Z,22.03
2019-03-30T13:33:53.744Z,21.68
2019-03-30T13:36:43.618Z,21.32
2019-03-30T13:39:14.078Z,21.14
2019-03-30T13:41:44.654Z,20.97
2019-03-30T13:44:15.146Z,20.73
2019-03-30T13:46:45.601Z,20.61
2019-03-30T13:49:16.135Z,21.09
2019-03-30T13:51:47.693Z,21.39
2019-03-30T13:54:19.132Z,21.40
2019-03-30T13:56:49.669Z,21.74
2019-03-30T13:59:20.300Z,21.58
2019-03-30T14:01:50.831Z,21.10
2019-03-30T14:04:21.327Z,20.83
2019-03-30T14:06:51.737Z,20.52
2019-03-30T14:09:22.247Z,20.60
2019-03-30T14:11:52.850Z,20.63
2019-03-30T14:14:23.515Z,21.12
2019-03-30T14:16:53.981Z,21.73
2019-03-30T14:19:24.463Z,21.28
2019-03-30T14:21:54.986Z,21.35
2019-03-30T14:24:25.438Z,21.44
2019-03-30T14:26:55.983Z,20.78
2019-03-30T14:29:26.461Z,20.86
2019-03-30T14:31:57.050Z,20.98
2019-03-30T14:34:27.588Z,20.50
2019-03-30T14:36:58.089Z,20.31
2019-03-30T14:39:28.585Z,20.51
2019-03-30T14:41:59.616Z,21.38
2019-03-30T14:44:30.097Z,20.92
2019-03-30T14:47:00.696Z,20.90
2019-03-30T14:49:31.307Z,20.78
2019-03-30T14:52:01.875Z,20.57
2019-03-30T14:54:32.432Z,21.02
2019-03-30T14:57:02.978Z,21.03
2019-03-30T14:59:33.521Z,21.28
2019-03-30T15:02:04.012Z,21.11
2019-03-30T15:04:34.547Z,21.22
2019-03-30T15:07:05.061Z,21.08
2019-03-30T15:09:35.514Z,20.61
2019-03-30T15:12:06.545Z,20.67
2019-03-30T15:14:37.006Z,20.70
2019-03-30T15:17:07.551Z,20.57
2019-03-30T15:19:39.232Z,20.46
2019-03-30T15:22:09.705Z,20.84
2019-03-30T15:24:40.156Z,20.62
2019-03-30T15:27:10.693Z,20.85
2019-03-30T15:29:41.201Z,20.72
2019-03-30T15:32:11.748Z,21.01
2019-03-30T15:34:42.270Z,21.10
2019-03-30T15:37:12.648Z,21.42
2019-03-30T15:39:43.093Z,21.54
2019-03-30T15:42:13.577Z,21.61
2019-03-30T15:44:44.132Z,21.71
2019-03-30T15:47:14.592Z,21.83
2019-03-30T15:49:45.645Z,22.06
2019-03-30T15:52:16.178Z,21.93
2019-03-30T15:54:46.786Z,21.84
2019-03-30T15:57:18.246Z,21.77
2019-03-30T15:59:48.766Z,21.73
2019-03-30T16:02:19.300Z,21.44
2019-03-30T16:04:49.910Z,21.25
2019-03-30T16:07:20.348Z,20.85
2019-03-30T16:09:50.808Z,20.82
2019-03-30T16:12:21.269Z,20.96
2019-03-30T16:14:51.730Z,21.05
2019-03-30T16:17:22.368Z,21.14
2019-03-30T16:19:53.091Z,20.80
2019-03-30T16:22:23.701Z,20.64
2019-03-30T16:24:54.157Z,20.60
2019-03-30T16:27:29.142Z,20.72
2019-03-30T16:29:58.592Z,20.76
2019-03-30T16:32:29.023Z,20.84
2019-03-30T16:34:59.562Z,20.76
2019-03-30T16:37:30.046Z,20.84
2019-03-30T16:40:00.531Z,20.88
2019-03-30T16:42:31.013Z,20.83
2019-03-30T16:45:01.587Z,20.73
2019-03-30T16:47:33.220Z,20.69
2019-03-30T16:50:03.780Z,20.46
2019-03-30T16:52:35.306Z,20.50
2019-03-30T16:55:06.122Z,20.29
2019-03-30T16:57:42.998Z,20.11
2019-03-30T17:00:09.724Z,19.83
2019-03-30T17:02:41.256Z,19.52
2019-03-30T17:05:12.016Z,19.37
2019-03-30T17:07:42.491Z,19.14
2019-03-30T17:10:14.617Z,19.04
2019-03-30T17:12:45.728Z,18.94
2019-03-30T17:15:16.273Z,18.79
2019-03-30T17:17:46.719Z,18.65
2019-03-30T17:20:17.251Z,18.48
2019-03-30T17:22:47.712Z,18.36
2019-03-30T17:25:18.194Z,18.21
2019-03-30T17:27:57.957Z,18.11
2019-03-30T17:30:20.811Z,17.96
2019-03-30T17:32:51.414Z,17.81
2019-03-30T17:35:21.864Z,17.71
2019-03-30T17:37:52.392Z,17.62
2019-03-30T17:40:23.118Z,17.45
2019-03-30T17:42:53.680Z,17.12
2019-03-30T17:45:24.212Z,16.89
2019-03-30T17:47:54.755Z,16.73
2019-03-30T17:50:25.294Z,16.57
2019-03-30T17:52:55.875Z,16.41
2019-03-30T17:55:33.507Z,16.28
2019-03-30T17:58:12.364Z,16.18
2019-03-30T18:00:30.946Z,16.07
2019-03-30T18:03:01.375Z,15.97
2019-03-30T18:05:33.477Z,15.90
2019-03-30T18:08:04.542Z,15.70
2019-03-30T18:10:35.094Z,15.63
2019-03-30T18:13:05.774Z,15.56
2019-03-30T18:15:36.419Z,15.37
2019-03-30T18:18:07.062Z,15.38
2019-03-30T18:20:37.544Z,15.34
2019-03-30T18:23:08.056Z,15.29
2019-03-30T18:25:38.509Z,15.20
2019-03-30T18:28:09.053Z,15.08
2019-03-30T18:30:41.432Z,14.92
2019-03-30T18:33:11.935Z,14.80
2019-03-30T18:35:43.824Z,14.66
2019-03-30T18:38:14.484Z,14.53
2019-03-30T18:40:44.938Z,14.42
2019-03-30T18:43:15.658Z,14.34
2019-03-30T18:45:46.291Z,14.30
2019-03-30T18:48:17.974Z,14.34
2019-03-30T18:50:48.546Z,14.29
2019-03-30T18:53:19.398Z,14.15
2019-03-30T18:55:49.965Z,14.11
2019-03-30T18:58:20.452Z,14.07
2019-03-30T19:00:50.918Z,14.04
2019-03-30T19:03:21.353Z,13.96
2019-03-30T19:05:51.705Z,13.85
2019-03-30T19:08:22.198Z,13.77
2019-03-30T19:10:52.630Z,13.67
2019-03-30T19:13:23.265Z,13.57
2019-03-30T19:18:43.225Z,13.40
2019-03-30T19:21:13.843Z,13.27
2019-03-30T19:23:45.426Z,13.30
2019-03-30T19:26:15.981Z,13.25
2019-03-30T19:28:56.111Z,13.26
2019-03-30T19:31:18.702Z,13.10
2019-03-30T19:33:49.242Z,13.04
2019-03-30T19:36:19.701Z,12.97
2019-03-30T19:38:50.179Z,12.92
2019-03-30T19:41:20.683Z,12.83
2019-03-30T19:43:51.164Z,12.82
2019-03-30T19:46:21.716Z,12.62
2019-03-30T19:48:52.195Z,12.47
2019-03-30T19:51:22.740Z,12.30
2019-03-30T19:53:53.203Z,12.24
2019-03-30T19:56:23.754Z,12.11
2019-03-30T19:58:54.293Z,12.09
2019-03-30T20:01:24.853Z,12.06
2019-03-30T20:03:55.313Z,12.08
2019-03-30T20:06:25.765Z,12.03
2019-03-30T20:08:57.235Z,11.73
2019-03-30T20:11:27.881Z,11.70
2019-03-30T20:13:58.581Z,11.56
2019-03-30T20:16:29.070Z,11.49
2019-03-30T20:19:11.498Z,11.58
2019-03-30T20:21:31.781Z,11.38
2019-03-30T20:24:02.231Z,11.19
2019-03-30T20:26:32.622Z,11.19
2019-03-30T20:29:03.064Z,11.38
2019-03-30T20:31:33.542Z,11.42
2019-03-30T20:34:04.021Z,11.38
2019-03-30T20:36:35.303Z,11.26
2019-03-30T20:39:08.338Z,10.91
2019-03-30T20:41:38.830Z,10.92
2019-03-30T20:44:09.299Z,10.90
2019-03-30T20:46:39.754Z,10.85
2019-03-30T20:49:10.297Z,10.70
2019-03-30T20:51:40.769Z,10.76
2019-03-30T20:54:11.239Z,10.70
2019-03-30T20:56:41.790Z,10.62
2019-03-30T20:59:12.265Z,10.47
2019-03-30T21:01:42.791Z,10.35
2019-03-30T21:04:13.435Z,10.36
2019-03-30T21:06:43.943Z,10.35
2019-03-30T21:09:14.385Z,10.21
2019-03-30T21:11:44.911Z,10.07
2019-03-30T21:14:15.355Z,10.04
2019-03-30T21:16:45.820Z,10.03
2019-03-30T21:19:16.290Z,9.97
2019-03-30T21:21:46.720Z,9.77
2019-03-30T21:24:17.197Z,9.54
2019-03-30T21:26:47.837Z,9.47
2019-03-30T21:29:18.303Z,9.38
2019-03-30T21:31:49.343Z,9.28
2019-03-30T21:34:19.971Z,9.42
2019-03-30T21:36:50.508Z,9.41
2019-03-30T21:39:20.962Z,9.40
2019-03-30T21:41:51.379Z,9.37
2019-03-30T21:44:22.590Z,9.35
2019-03-30T21:46:53.155Z,9.27
2019-03-30T21:49:23.619Z,9.32
2019-03-30T21:51:54.119Z,9.30
2019-03-30T21:54:24.641Z,9.22
2019-03-30T21:56:55.051Z,9.20
2019-03-30T21:59:25.434Z,9.22
2019-03-30T22:01:55.880Z,9.38
2019-03-30T22:04:26.322Z,9.26
2019-03-30T22:06:56.755Z,9.19
2019-03-30T22:09:27.376Z,9.17
2019-03-30T22:11:57.911Z,9.15
2019-03-30T22:14:28.469Z,8.98
2019-03-30T22:16:58.943Z,9.02
2019-03-30T22:19:29.443Z,9.11
2019-03-30T22:22:01.208Z,9.15
2019-03-30T22:24:31.786Z,8.92
2019-03-30T22:27:02.257Z,8.79
2019-03-30T22:29:32.737Z,8.79
2019-03-30T22:32:03.212Z,8.74
2019-03-30T22:34:33.749Z,8.63
2019-03-30T22:37:04.317Z,8.55
2019-03-30T22:39:35.693Z,8.67
2019-03-30T22:42:06.220Z,8.60
2019-03-30T22:44:36.704Z,8.75
2019-03-30T22:47:07.143Z,9.32
2019-03-30T22:49:37.699Z,9.64
2019-03-30T22:52:08.125Z,9.79
2019-03-30T22:54:38.744Z,9.67
2019-03-30T22:57:09.186Z,9.39
2019-03-30T22:59:39.697Z,9.21
2019-03-30T23:02:10.223Z,8.97
2019-03-30T23:04:40.827Z,8.99
2019-03-30T23:07:11.568Z,9.07
2019-03-30T23:09:42.093Z,9.14
2019-03-30T23:12:12.590Z,9.07
2019-03-30T23:15:02.640Z,8.87
2019-03-30T23:17:34.194Z,8.78
2019-03-30T23:20:05.890Z,8.61
2019-03-30T23:22:36.367Z,8.54
2019-03-30T23:25:08.043Z,8.59
2019-03-30T23:27:38.448Z,8.47
2019-03-30T23:30:10.002Z,9.76
2019-03-30T23:32:40.544Z,11.57
2019-03-30T23:35:11.161Z,12.55
2019-03-30T23:37:41.717Z,11.45
2019-03-30T23:40:12.302Z,10.72
2019-03-30T23:42:42.845Z,10.30
2019-03-30T23:45:13.503Z,9.99
2019-03-30T23:47:44.162Z,10.00
2019-03-30T23:50:15.092Z,10.10
2019-03-30T23:52:45.693Z,10.16
2019-03-30T23:55:16.177Z,10.27
2019-03-30T23:57:46.683Z,10.44
